PHKO METAR and TAF weather

Enter ICAO airport designator
Station Type Date Time Source
PHKO METAR 2022/08/12 15:53 UTC NOAA

PHKO 121553Z 03003KT 10SM CLR 24/18 A3000 RMK AO2 SLP159 T02440183


Station Type Date Time Source
PHKO Decoded METAR 2022/08/12 15:53 UTC NOAA

KONA INTERNATIONAL AIRPORT, HI, United States (PHKO) 19-44N 156-03W 27M
Aug 12, 2022 - 11:53 AM EDT / 2022.08.12 1553 UTC
Wind: from the NNE (030 degrees) at 3 MPH (3 KT):0
Visibility: 10 mile(s):0
Sky conditions: clear
Temperature: 75.9 F (24.4 C)
Dew Point: 64.9 F (18.3 C)
Relative Humidity: 68%
Pressure (altimeter): 30 in. Hg (1015 hPa)
ob: PHKO 121553Z 03003KT 10SM CLR 24/18 A3000 RMK AO2 SLP159 T02440183
cycle: 16

Station Type Date Time Source
PHKO TAF 2022/08/12 12:42 UTC NOAA

TAF PHKO 121141Z 1212/1312 03004KT P6SM FEW030 SCT050
FM122000 21009KT P6SM SCT035 BKN050
FM130600 03004KT P6SM FEW030 SCT050

Example: see airport list